Latest Weather Observations for Clermont Airport

IDQ60801

Issued at 11:43 pm EST Tuesday 28 January 2020 (issued every 10 minutes, with the page automatically refreshed every 10 minutes)

About weather observations | Map of weather stations | Latest weather observations for QLD | Other Formats
Station Details ID: 035124 Name: CLERMONT AIRPORT Lat: -22.78 Lon: 147.62 Height: 270.27 m
Data from the previous 72 hours. | See also: Recent months at Clermont Airport
Date/Time
EST
Temp
°C
App
Temp
°C
Dew
Point
°C
Rel
Hum
%
Delta-T
°C
Wind Press
QNH
hPa
Press
MSL
hPa
Rain since
9am
mm
Dir  Spd
km/h
Gust
km/h
Spd
kts
Gust
kts
28/11:30pm 23.5 27.6 22.3 93 0.8 E 4 6 2 3 1013.2 1011.4 7.4
28/11:00pm 23.4 28.2 22.2 93 0.8 CALM 0 2 0 1 1013.4 1011.6 7.4
28/10:30pm 23.4 27.5 22.2 93 0.8 ESE 4 6 2 3 1013.3 1011.5 7.4
28/10:00pm 23.3 27.6 21.9 92 0.9 E 2 4 1 2 1013.1 1011.3 7.2
28/09:30pm 23.4 27.3 21.8 91 1.1 E 4 6 2 3 1013.1 1011.3 7.2
28/09:00pm 23.5 27.0 21.9 91 1.1 E 6 11 3 6 1013.0 1011.2 7.2
28/08:30pm 23.5 27.6 22.3 93 0.8 ENE 4 7 2 4 1013.0 1011.2 7.2
28/08:00pm 23.7 27.4 22.5 93 0.8 E 7 11 4 6 1012.6 1010.7 7.2
28/07:30pm 23.9 27.9 22.7 93 0.8 SE 6 7 3 4 1012.4 1010.5 7.2
28/07:00pm 24.0 28.3 22.6 92 0.9 SE 4 6 2 3 1012.0 1010.1 6.4
28/06:30pm 23.9 28.9 22.5 92 0.9 CALM 0 0 0 0 1011.5 1009.6 6.4
28/06:05pm 23.8 27.9 22.2 91 1.1 E 4 7 2 4 1011.1 1009.2 6.4
28/06:00pm 23.8 27.5 22.2 91 1.1 ENE 6 9 3 5 1011.0 1009.1 6.4
28/05:46pm 23.8 26.9 22.1 90 1.1 ENE 9 17 5 9 1011.0 1009.1 6.2
28/05:30pm 23.9 26.3 21.6 87 1.5 ENE 11 28 6 15 1011.0 1009.1 6.2
28/05:00pm 24.6 26.9 22.1 86 1.7 ESE 13 22 7 12 1010.4 1008.5 6.0
28/04:30pm 24.4 27.9 21.9 86 1.7 SE 6 11 3 6 1009.7 1007.9 5.6
28/04:00pm 24.8 28.7 23.0 90 1.2 ESE 7 13 4 7 1009.6 1007.8 5.6
28/03:30pm 24.4 27.4 22.7 90 1.2 N 11 15 6 8 1009.3 1007.5 5.6
28/03:00pm 24.3 27.0 22.2 88 1.4 NNE 11 15 6 8 1009.9 1008.1 5.4
28/02:43pm 24.3 27.7 22.7 91 1.1 NE 9 13 5 7 1010.1 1008.3 5.4
28/02:30pm 24.3 27.5 23.1 93 0.8 ENE 11 20 6 11 1010.4 1008.5 5.2
28/02:16pm 24.3 25.2 22.0 87 1.5 E 20 41 11 22 1010.5 1008.6 3.8
28/02:00pm 29.1 31.1 21.6 64 5.1 SE 13 20 7 11 1009.9 1008.1 2.6
28/01:30pm 29.0 32.0 22.7 69 4.3 SE 11 19 6 10 1010.5 1008.6 2.6
28/01:15pm 27.2 31.9 23.4 80 2.6 E 4 9 2 5 1010.8 1008.9 2.6
28/01:00pm 25.3 28.2 21.8 81 2.4 E 9 32 5 17 1011.1 1009.2 2.6
28/12:56pm 25.3 27.2 21.4 79 2.6 ESE 13 32 7 17 1011.2 1009.3 2.2
28/12:30pm 28.5 30.6 21.0 64 5.0 ESE 11 19 6 10 1011.3 1009.4 0.0
28/12:00pm 28.4 30.3 21.4 66 4.7 SE 13 24 7 13 1011.8 1009.9 0.0
28/11:30am 27.9 30.4 21.7 69 4.2 SE 11 22 6 12 1012.2 1010.3 0.0
28/11:00am 27.8 30.2 22.3 72 3.7 ESE 13 22 7 12 1012.4 1010.5 0.0
28/10:30am 26.8 28.2 21.1 71 3.8 ESE 15 28 8 15 1012.7 1010.9 0.0
28/10:00am 26.9 28.2 21.6 72 3.6 SE 17 30 9 16 1012.7 1010.9 0.0
28/09:30am 25.4 27.4 21.5 79 2.6 ESE 13 22 7 12 1012.8 1011.0 0.0
28/09:29am 25.3 27.2 21.4 79 2.6 ESE 13 22 7 12 1012.8 1011.0 0.0
28/09:00am 24.8 26.7 21.3 81 2.3 ESE 13 24 7 13 1012.5 1010.6 13.8
28/08:30am 24.1 26.7 21.2 84 1.9 SE 9 20 5 11 1012.2 1010.3 13.8
28/08:12am 24.2 26.7 21.7 86 1.7 SE 11 17 6 9 1012.1 1010.2 13.8
28/08:00am 23.8 26.1 21.3 86 1.7 SE 11 20 6 11 1012.1 1010.2 13.8
28/07:30am 23.3 26.3 21.2 88 1.4 SE 7 11 4 6 1011.9 1010.0 13.8
28/07:00am 22.7 25.6 21.0 90 1.1 SSE 7 13 4 7 1011.5 1009.6 13.8
28/06:30am 22.3 25.4 21.1 93 0.8 SE 6 11 3 6 1011.1 1009.2 13.8
28/06:00am 22.1 25.3 21.3 95 0.5 SSE 6 9 3 5 1010.5 1008.6 13.8
28/05:30am 22.0 25.4 21.0 94 0.7 SSE 4 6 2 3 1010.3 1008.4 13.8
28/05:00am 22.0 25.4 21.0 94 0.7 SSE 4 6 2 3 1009.9 1008.1 13.8
28/04:30am 22.0 25.7 20.8 93 0.8 SE 2 6 1 3 1010.0 1008.2 13.8
28/04:00am 22.0 25.3 20.8 93 0.8 SE 4 6 2 3 1010.1 1008.3 13.8
28/03:30am 21.9 25.4 20.4 91 1.0 ESE 2 4 1 2 1010.1 1008.3 13.8
28/03:00am 22.0 25.1 20.3 90 1.1 ENE 4 4 2 2 1010.5 1008.6 13.8
28/02:30am 22.2 25.0 20.5 90 1.1 ESE 6 9 3 5 1010.9 1009.0 13.8
28/02:00am 22.2 25.4 20.5 90 1.1 ESE 4 6 2 3 1011.2 1009.3 13.8
28/01:30am 22.3 25.5 20.6 90 1.1 SE 4 9 2 5 1011.8 1009.9 13.8
28/01:00am 22.4 25.8 20.9 91 1.0 SSE 4 6 2 3 1012.1 1010.2 13.8
28/12:30am 22.6 26.5 21.1 91 1.0 SE 2 6 1 3 1012.3 1010.4 13.8
28/12:00am 22.6 26.7 21.6 94 0.7 SSE 2 4 1 2 1012.7 1010.9 13.8
 
Date/Time
EST
Temp
°C
App
Temp
°C
Dew
Point
°C
Rel
Hum
%
Delta-T
°C
Wind Press
QNH
hPa
Press
MSL
hPa
Rain since
9am
mm
Dir  Spd
km/h
Gust
km/h
Spd
kts
Gust
kts
27/11:30pm 22.6 26.5 21.9 96 0.5 SSW 4 6 2 3 1012.7 1010.9 13.8
27/11:15pm 22.4 26.6 21.7 96 0.5 SSW 2 4 1 2 1012.7 1010.9 13.8
27/11:00pm 22.4 26.5 21.6 95 0.5 WSW 2 4 1 2 1012.8 1011.0 13.8
27/10:50pm 22.4 26.5 21.6 95 0.5 SSW 2 4 1 2 1012.8 1011.0 13.8
27/10:30pm 22.4 25.8 21.6 95 0.5 SW 6 7 3 4 1012.8 1011.0 13.8
27/10:00pm 22.4 26.1 21.4 94 0.7 S 4 4 2 2 1012.9 1011.1 13.8
27/09:30pm 22.5 27.1 21.7 95 0.5 CALM 0 2 0 1 1012.5 1010.6 13.8
27/09:00pm 22.5 27.1 21.7 95 0.5 CALM 0 2 0 1 1012.3 1010.4 13.8
27/08:30pm 22.1 26.4 21.1 94 0.7 CALM 0 0 0 0 1012.1 1010.2 13.8
27/08:00pm 21.9 26.1 20.9 94 0.7 CALM 0 0 0 0 1012.0 1010.1 13.8
27/07:30pm 22.0 26.0 20.5 91 1.0 CALM 0 0 0 0 1011.4 1009.5 13.8
27/07:00pm 21.7 25.4 20.0 90 1.1 CALM 0 0 0 0 1011.3 1009.4 13.8
27/06:30pm 22.0 24.2 19.5 86 1.6 ESE 7 13 4 7 1011.1 1009.2 13.8
27/06:00pm 22.7 26.2 21.9 95 0.5 ESE 6 9 3 5 1010.9 1009.0 13.8
27/05:33pm 22.7 26.3 22.0 96 0.5 E 6 13 3 7 1010.8 1008.9 13.8
27/05:30pm 22.7 26.3 22.0 96 0.5 E 6 13 3 7 1010.8 1008.9 13.8
27/05:19pm 22.6 26.1 21.9 96 0.5 ESE 6 9 3 5 1010.6 1008.7 13.8
27/05:00pm 22.5 26.4 21.8 96 0.5 SW 4 6 2 3 1010.0 1008.2 13.8
27/04:30pm 22.4 26.2 21.6 95 0.5 SW 4 6 2 3 1010.1 1008.3 13.8
27/04:00pm 22.2 25.2 21.2 94 0.7 SSW 7 9 4 5 1010.3 1008.4 13.8
27/03:30pm 22.1 24.4 20.7 92 0.9 S 9 15 5 8 1010.6 1008.7 13.8
27/03:00pm 22.7 23.9 20.6 88 1.4 S 15 22 8 12 1010.6 1008.7 13.8
27/02:44pm 23.5 26.0 21.8 90 1.1 S 11 19 6 10 1010.7 1008.8 13.8
27/02:30pm 23.8 25.6 21.9 89 1.3 S 15 22 8 12 1010.6 1008.7 13.8
27/02:11pm 23.9 26.2 22.7 93 0.8 S 15 24 8 13 1010.7 1008.8 13.8
27/02:00pm 24.0 26.8 23.0 94 0.7 S 13 19 7 10 1010.8 1008.9 13.8
27/01:49pm 23.9 26.6 22.9 94 0.7 S 13 17 7 9 1011.0 1009.1 13.8
27/01:30pm 23.4 26.7 22.6 95 0.5 S 9 13 5 7 1011.3 1009.4 13.8
27/01:27pm 23.3 26.6 22.5 95 0.5 S 9 13 5 7 1011.3 1009.4 13.8
27/01:00pm 22.8 25.8 22.0 95 0.5 SSE 9 13 5 7 1011.6 1009.7 13.4
27/12:30pm 23.3 26.3 22.6 96 0.5 SSE 11 17 6 9 1011.7 1009.8 10.2
27/12:00pm 23.5 27.3 22.7 95 0.5 SE 7 13 4 7 1012.1 1010.2 9.4
27/11:46am 23.4 27.2 22.7 96 0.5 SE 7 13 4 7 1012.2 1010.3 9.0
27/11:42am 23.3 27.0 22.5 95 0.5 SE 7 13 4 7 1012.2 1010.3 9.0
27/11:30am 23.3 27.0 22.5 95 0.5 SE 7 15 4 8 1012.3 1010.4 8.2
27/11:02am 23.3 26.6 22.5 95 0.5 SE 9 15 5 8 1012.6 1010.7 7.6
27/11:00am 23.3 27.0 22.5 95 0.5 SE 7 15 4 8 1012.6 1010.7 7.4
27/10:33am 23.1 26.7 22.3 95 0.5 ESE 7 15 4 8 1012.7 1010.9 7.4
27/10:30am 23.1 26.3 22.3 95 0.5 ESE 9 20 5 11 1012.7 1010.9 7.4
27/10:00am 23.2 26.6 22.7 97 0.3 SE 9 20 5 11 1012.6 1010.7 6.8
27/09:30am 23.3 27.1 22.8 97 0.3 SE 7 15 4 8 1012.6 1010.7 3.8
27/09:00am 23.2 26.9 22.5 96 0.5 SE 7 13 4 7 1012.5 1010.6 26.4
27/08:30am 23.5 27.0 22.8 96 0.5 SE 9 15 5 8 1012.4 1010.5 22.0
27/08:00am 23.3 27.2 22.6 96 0.5 SE 6 9 3 5 1012.4 1010.5 20.8
27/07:30am 23.2 27.0 22.4 95 0.5 SE 6 9 3 5 1012.2 1010.3 20.0
27/07:27am 23.3 27.2 22.5 95 0.5 SE 6 9 3 5 1012.1 1010.2 20.0
27/07:25am 23.3 27.2 22.5 95 0.5 SE 6 9 3 5 1012.1 1010.2 20.0
27/07:00am 23.2 27.3 22.2 94 0.7 SSE 4 7 2 4 1012.0 1010.1 20.0
27/06:30am 23.2 26.9 22.2 94 0.7 SSE 6 7 3 4 1011.5 1009.6 19.8
27/06:00am 23.2 26.9 22.2 94 0.7 SSE 6 11 3 6 1011.0 1009.1 19.8
27/05:30am 23.3 27.2 21.9 92 0.9 SE 4 6 2 3 1010.8 1008.9 19.8
27/05:00am 23.5 27.4 21.9 91 1.1 ESE 4 6 2 3 1010.5 1008.6 19.6
27/04:30am 23.5 27.4 21.9 91 1.1 ESE 4 7 2 4 1010.1 1008.3 19.6
27/04:00am 23.4 27.3 21.8 91 1.1 ESE 4 6 2 3 1009.9 1008.1 19.6
27/03:30am 23.5 27.5 22.1 92 0.9 E 4 6 2 3 1009.8 1008.0 19.6
27/03:00am 23.5 28.5 22.5 94 0.7 CALM 0 4 0 2 1010.0 1008.2 19.6
27/02:30am 23.5 27.7 22.5 94 0.7 SE 4 7 2 4 1010.3 1008.4 19.6
27/02:24am 23.5 28.1 22.5 94 0.7 ESE 2 6 1 3 1010.4 1008.5 19.6
27/02:03am 23.6 28.2 22.4 93 0.8 ESE 2 4 1 2 1010.6 1008.7 19.6
27/02:00am 23.6 28.2 22.4 93 0.8 ESE 2 4 1 2 1010.7 1008.8 19.6
27/01:30am 23.6 28.1 22.2 92 0.9 E 2 6 1 3 1011.0 1009.1 19.6
27/01:00am 23.6 27.7 22.2 92 0.9 ENE 4 7 2 4 1011.3 1009.4 19.6
27/12:40am 23.6 27.8 22.4 93 0.8 ENE 4 6 2 3 1011.5 1009.6 19.6
27/12:30am 23.6 28.2 22.4 93 0.8 E 2 7 1 4 1011.6 1009.7 19.6
27/12:06am 23.7 28.4 22.7 94 0.7 E 2 4 1 2 1011.9 1010.0 19.6
27/12:00am 23.8 29.1 23.0 95 0.5 CALM 0 4 0 2 1012.0 1010.1 19.6
 
Date/Time
EST
Temp
°C
App
Temp
°C
Dew
Point
°C
Rel
Hum
%
Delta-T
°C
Wind Press
QNH
hPa
Press
MSL
hPa
Rain since
9am
mm
Dir  Spd
km/h
Gust
km/h
Spd
kts
Gust
kts
26/11:30pm 23.7 28.5 22.9 95 0.5 E 2 4 1 2 1012.2 1010.3 19.6
26/11:00pm 23.7 28.6 23.0 96 0.5 E 2 4 1 2 1012.4 1010.5 19.6
26/10:30pm 23.6 28.4 22.9 96 0.5 E 2 6 1 3 1012.4 1010.5 19.6
26/10:08pm 23.6 28.1 22.9 96 0.5 E 4 9 2 5 1012.4 1010.5 19.4
26/10:00pm 23.6 27.7 22.9 96 0.5 E 6 11 3 6 1012.4 1010.5 19.0
26/09:32pm 23.6 28.1 22.9 96 0.5 E 4 9 2 5 1012.3 1010.4 18.4
26/09:30pm 23.7 28.2 23.0 96 0.5 E 4 6 2 3 1012.3 1010.4 18.2
26/09:00pm 23.6 27.7 22.9 96 0.5 ESE 6 9 3 5 1012.1 1010.2 17.8
26/08:30pm 23.5 27.5 22.8 96 0.5 E 6 9 3 5 1012.0 1010.1 16.6
26/08:14pm 23.4 27.7 22.7 96 0.5 ESE 4 7 2 4 1011.9 1010.0 16.0
26/08:00pm 23.2 27.4 22.5 96 0.5 ESE 4 6 2 3 1011.8 1009.9 14.8
26/07:47pm 23.2 27.0 22.4 95 0.5 E 6 11 3 6 1011.7 1009.8 12.2
26/07:30pm 23.4 26.6 22.4 94 0.7 ENE 9 17 5 9 1011.5 1009.6 8.0
26/07:21pm 23.9 28.0 22.9 94 0.7 ENE 6 13 3 7 1011.3 1009.4 5.6
26/07:20pm 23.9 28.0 23.0 95 0.6 ENE 6 11 3 6 1011.3 1009.4 5.4
26/07:00pm 24.1 27.7 23.1 94 0.7 NNE 9 13 5 7 1010.9 1009.0 4.8
26/06:51pm 24.2 27.8 23.0 93 0.8 NNE 9 15 5 8 1010.7 1008.8 4.8
26/06:31pm 24.5 28.6 23.3 93 0.8 NNE 7 11 4 6 1010.5 1008.6 4.8
26/06:30pm 24.5 28.5 23.1 92 1.0 NNE 7 9 4 5 1010.5 1008.6 4.8
26/06:00pm 25.1 28.6 22.8 87 1.6 NNE 9 13 5 7 1009.9 1008.1 4.8
26/05:30pm 25.4 28.8 22.7 85 1.8 N 9 13 5 7 1009.3 1007.5 4.8
26/05:00pm 25.3 29.3 22.8 86 1.7 NNW 6 11 3 6 1009.2 1007.3 4.8
26/04:30pm 25.4 28.8 23.3 88 1.4 NW 11 19 6 10 1009.1 1007.2 4.8
26/04:00pm 25.6 28.3 22.9 85 1.8 NW 13 19 7 10 1009.0 1007.1 4.8
26/03:30pm 26.1 29.5 23.4 85 1.9 N 11 17 6 9 1009.2 1007.3 4.8
26/03:19pm 25.8 27.3 22.7 83 2.1 N 19 26 10 14 1009.2 1007.3 4.8
26/03:04pm 25.9 28.3 23.0 84 2.0 NNE 15 22 8 12 1009.2 1007.3 4.8
26/03:00pm 26.1 28.5 23.0 83 2.1 NNE 15 24 8 13 1009.3 1007.5 4.6
26/02:30pm 27.0 31.1 23.3 80 2.5 W 7 11 4 6 1009.3 1007.5 4.6
26/02:00pm 26.5 30.3 23.4 83 2.1 WSW 9 13 5 7 1009.5 1007.7 4.6
26/01:30pm 26.4 29.4 23.3 83 2.1 WSW 13 15 7 8 1009.7 1007.9 4.6
26/01:00pm 27.0 31.3 23.3 80 2.6 NW 6 7 3 4 1010.1 1008.3 4.6
26/12:30pm 26.5 29.2 23.4 83 2.1 NNW 15 22 8 12 1010.7 1008.8 4.4
26/12:00pm 29.5 32.6 22.2 65 5.0 ENE 9 19 5 10 1011.0 1009.1 4.4
26/11:30am 28.7 31.0 22.0 67 4.6 ENE 13 24 7 13 1011.4 1009.5 4.2
26/11:00am 28.5 32.2 23.2 73 3.7 NE 9 19 5 10 1011.8 1009.9 4.2
26/10:30am 25.5 30.1 23.2 87 1.6 NW 4 9 2 5 1012.3 1010.4 4.2
26/10:27am 25.4 29.7 23.3 88 1.4 NW 6 9 3 5 1012.3 1010.4 4.2
26/10:04am 24.8 28.0 22.3 86 1.7 NNE 9 17 5 9 1012.6 1010.7 1.8
26/10:00am 26.1 29.4 22.6 81 2.4 NE 9 17 5 9 1012.5 1010.6 0.2
26/09:30am 26.4 28.9 21.8 76 3.1 ENE 11 19 6 10 1012.4 1010.5 0.0
26/09:02am 25.8 29.3 22.1 80 2.5 ENE 7 13 4 7 1012.3 1010.4 0.0
26/09:00am 25.9 29.5 22.4 81 2.4 ENE 7 13 4 7 1012.3 1010.4 1.2
26/08:30am 25.5 28.6 22.2 82 2.2 ENE 9 17 5 9 1012.3 1010.4 1.2
26/08:18am 25.5 29.4 22.6 84 2.0 NE 6 15 3 8 1012.3 1010.4 1.2
26/08:00am 24.5 28.9 22.8 90 1.2 E 4 7 2 4 1012.3 1010.4 1.2
26/07:30am 24.3 27.8 22.2 88 1.4 ENE 7 13 4 7 1012.2 1010.3 1.2
26/07:00am 24.1 28.3 22.5 91 1.1 E 4 6 2 3 1012.1 1010.2 1.2
26/06:30am 24.0 28.3 22.6 92 0.9 ESE 4 7 2 4 1011.7 1009.8 1.2
26/06:00am 23.8 28.6 22.8 94 0.7 ESE 2 4 1 2 1011.1 1009.2 1.2
26/05:30am 23.7 28.2 22.3 92 0.9 E 2 6 1 3 1010.6 1008.7 1.2
26/05:00am 24.0 28.1 22.3 90 1.1 ENE 4 9 2 5 1010.3 1008.4 0.8
26/04:54am 24.1 28.2 22.2 89 1.3 E 4 9 2 5 1010.4 1008.5 0.8
26/04:30am 24.4 28.0 22.1 87 1.5 ENE 6 9 3 5 1010.4 1008.5 0.8
26/04:15am 24.4 28.5 22.3 88 1.4 E 4 9 2 5 1010.4 1008.5 0.8
26/04:00am 24.4 28.9 22.3 88 1.4 E 2 6 1 3 1010.3 1008.4 0.8
26/03:30am 24.4 28.5 22.3 88 1.4 ENE 4 7 2 4 1010.1 1008.3 0.8
26/03:14am 24.4 28.1 22.3 88 1.4 ENE 6 9 3 5 1010.1 1008.3 0.8
26/03:00am 24.4 28.1 22.3 88 1.4 ENE 6 11 3 6 1010.1 1008.3 0.8
26/02:30am 24.4 28.1 22.3 88 1.4 ENE 6 9 3 5 1010.1 1008.3 0.8
26/02:00am 24.6 28.5 22.5 88 1.4 E 6 9 3 5 1010.3 1008.4 0.8
26/01:30am 24.7 28.8 22.2 86 1.7 ENE 4 7 2 4 1010.4 1008.5 0.8
26/01:21am 24.8 29.3 22.3 86 1.7 E 2 6 1 3 1010.5 1008.6 0.8
26/01:00am 24.9 29.0 22.2 85 1.8 NE 4 7 2 4 1010.8 1008.9 0.8
26/12:30am 24.9 28.6 22.2 85 1.8 NE 6 11 3 6 1011.1 1009.2 0.8
26/12:00am 25.0 28.5 22.1 84 2.0 NE 7 15 4 8 1011.5 1009.6 0.8
 
Date/Time
EST
Temp
°C
App
Temp
°C
Dew
Point
°C
Rel
Hum
%
Delta-T
°C
Wind Press
QNH
hPa
Press
MSL
hPa
Rain since
9am
mm
Dir  Spd
km/h
Gust
km/h
Spd
kts
Gust
kts
25/11:51pm 25.1 28.9 22.4 85 1.8 ENE 6 13 3 7 1011.7 1009.8 0.8

Other formats

Comma delimited format used in spreadsheet applications
http://www.bom.gov.au/fwo/IDQ60801/IDQ60801.94395.axf

JavaScript Object Notation format (JSON) in row-major order
http://www.bom.gov.au/fwo/IDQ60801/IDQ60801.94395.json

Data quality

Most of these data are generated automatically and are frequently updated. Quality checks on data are not normally performed. It is possible for incorrect values to appear. Refer to information at About Latest Weather Observations and please check the disclaimer before using these data.